Hlavní strana
METAR-TAF:

METAR-TAF

Letiště :

Schwäbisch Hall, Německo

zeměpisná šířka: 49-07-06N, zeměpisná délka: 9-47-02E, výška: 398 m

Aktuální stav počasí

Zpráva byla vytvořena před 20 hodinami a 39 minutami, v 14:50 UTC
Teplota -1°C
Vlhkost vzduchu 74%
Tlak 1015 hPa
Viditelnost 10 km a více
Zataženo ve výšce 2000 ft

METAR: EDTY 201450Z /////KT 9999 OVC020 M01/M05 Q1015

Čas: 12:29 (11:29 UTC)

Předpověď počasí

Zpráva byla vytvořena před 21 hodinami a 29 minutami, v 14:00 UTC
Předpověď platná od 20 v 15 UTC do 20 v 24 UTC
Severoseverovýchodní vítr 5 kt
Viditelnost: 7000 m
Zataženo ve výšce 3000 ft

TAF: EDTY 201400Z 2015/2024 03005KT 7000 OVC030

Stav a předpovědi počasí z více než 4 000 letišť (zprávy METAR a TAF).

Červené a žluté tečky na mapě představují dostupné meteorologické stanice.

Když kurzor umístíte na tečku, zobrazí se název stanice.

Pak kliknutím zobrazíte stav a předpověď počasí.

Chcete-li změnit mapu, kliknutím na zelené tlačítko se znaménkem +mapu přiblížíte, kliknutím na zelené tlačítko se znaménkem – mapu oddálíte a kliknutím na zelené šipky přejdete na sousední mapy.


METAR-TAF: